createdAt,value
2017-01-05T00:00:41.789Z,0
2017-01-05T00:01:41.018Z,0
2017-01-05T00:02:40.653Z,0
2017-01-05T00:03:41.499Z,0
2017-01-05T00:04:41.103Z,0
2017-01-05T00:05:41.132Z,0
2017-01-05T00:06:41.156Z,0
2017-01-05T00:07:41.577Z,0
2017-01-05T00:08:41.238Z,0
2017-01-05T00:09:41.287Z,0
2017-01-05T00:10:40.875Z,0
2017-01-05T00:11:41.692Z,0
2017-01-05T00:12:40.921Z,0
2017-01-05T00:13:40.941Z,0
2017-01-05T00:14:40.986Z,0
2017-01-05T00:15:41.391Z,0
2017-01-05T00:16:41.424Z,0
2017-01-05T00:17:41.848Z,0
2017-01-05T00:18:40.680Z,0
2017-01-05T00:19:41.886Z,0
2017-01-05T00:20:41.926Z,0
2017-01-05T00:21:41.159Z,0
2017-01-05T00:22:41.979Z,0
2017-01-05T00:23:41.213Z,0
2017-01-05T00:24:42.032Z,0
2017-01-05T00:25:42.094Z,0
2017-01-05T00:26:42.079Z,0
2017-01-05T00:27:42.499Z,0
2017-01-05T00:28:41.340Z,0
2017-01-05T00:29:41.430Z,0
2017-01-05T00:30:42.185Z,0
2017-01-05T00:31:41.818Z,0
2017-01-05T00:32:41.451Z,0
2017-01-05T00:33:42.268Z,0
2017-01-05T00:34:41.948Z,0
2017-01-05T00:35:41.129Z,0
2017-01-05T00:36:41.157Z,0
2017-01-05T00:37:41.589Z,0
2017-01-05T00:38:41.602Z,0
2017-01-05T00:39:42.031Z,0
2017-01-05T00:40:42.060Z,0
2017-01-05T00:41:42.081Z,0
2017-01-05T00:42:42.901Z,0
2017-01-05T00:43:42.938Z,0
2017-01-05T00:44:41.362Z,0
2017-01-05T00:45:41.788Z,0
2017-01-05T00:46:41.816Z,0
2017-01-05T00:47:42.633Z,0
2017-01-05T00:48:41.871Z,0
2017-01-05T00:49:42.350Z,0
2017-01-05T00:50:43.128Z,0
2017-01-05T00:51:41.952Z,0
2017-01-05T00:52:41.976Z,0
2017-01-05T00:53:42.013Z,0
2017-01-05T00:54:42.030Z,0
2017-01-05T00:55:42.050Z,0
2017-01-05T00:56:42.879Z,0
2017-01-05T00:57:42.898Z,0
2017-01-05T00:58:42.532Z,0
2017-01-05T00:59:43.350Z,0
2017-01-05T01:00:42.189Z,0
2017-01-05T01:01:42.214Z,0
2017-01-05T01:02:42.235Z,0
2017-01-05T01:03:41.900Z,0
2017-01-05T01:04:41.897Z,0
2017-01-05T01:05:42.773Z,0
2017-01-05T01:06:43.138Z,0
2017-01-05T01:07:42.762Z,0
2017-01-05T01:08:42.386Z,0
2017-01-05T01:09:42.423Z,0
2017-01-05T01:10:42.448Z,0
2017-01-05T01:11:42.865Z,0
2017-01-05T01:12:42.901Z,0
2017-01-05T01:13:42.134Z,0
2017-01-05T01:14:43.359Z,0
2017-01-05T01:15:43.429Z,0
2017-01-05T01:16:43.796Z,0
2017-01-05T01:17:42.641Z,0
2017-01-05T01:18:42.265Z,0
2017-01-05T01:19:42.714Z,0
2017-01-05T01:20:43.115Z,0
2017-01-05T01:21:42.731Z,0
2017-01-05T01:22:43.173Z,0
2017-01-05T01:23:42.792Z,0
2017-01-05T01:24:43.609Z,0
2017-01-05T01:25:42.853Z,0
2017-01-05T01:26:43.658Z,0
2017-01-05T01:27:43.691Z,0
2017-01-05T01:28:43.319Z,0
2017-01-05T01:29:42.952Z,0
2017-01-05T01:30:44.219Z,0
2017-01-05T01:31:42.602Z,0
2017-01-05T01:32:43.815Z,0
2017-01-05T01:33:43.443Z,0
2017-01-05T01:34:43.871Z,0
2017-01-05T01:35:43.121Z,0
2017-01-05T01:36:43.537Z,0
2017-01-05T01:37:43.551Z,0
2017-01-05T01:38:43.575Z,0
2017-01-05T01:39:44.003Z,0
2017-01-05T01:40:44.052Z,0
2017-01-05T01:41:43.264Z,0
2017-01-05T01:42:43.289Z,0
2017-01-05T01:43:43.715Z,0
2017-01-05T01:44:43.343Z,0
2017-01-05T01:45:43.763Z,0
2017-01-05T01:46:44.188Z,0
2017-01-05T01:47:44.601Z,0
2017-01-05T01:48:44.234Z,0
2017-01-05T01:49:43.880Z,0
2017-01-05T01:50:43.895Z,0
2017-01-05T01:51:43.919Z,0
2017-01-05T01:52:43.552Z,0
2017-01-05T01:53:43.589Z,0
2017-01-05T01:54:44.398Z,0
2017-01-05T01:55:44.819Z,0
2017-01-05T01:56:43.659Z,0
2017-01-05T01:57:44.075Z,0
2017-01-05T01:58:43.312Z,0
2017-01-05T01:59:44.557Z,0
2017-01-05T02:00:43.754Z,0
2017-01-05T02:01:44.963Z,0
2017-01-05T02:02:44.203Z,0
2017-01-05T02:03:44.237Z,0
2017-01-05T02:04:43.857Z,0
2017-01-05T02:05:44.685Z,0
2017-01-05T02:06:43.930Z,0
2017-01-05T02:07:44.335Z,0
2017-01-05T02:08:43.576Z,0
2017-01-05T02:09:44.392Z,0
2017-01-05T02:10:45.205Z,0
2017-01-05T02:11:44.438Z,0
2017-01-05T02:12:44.473Z,0
2017-01-05T02:13:43.707Z,0
2017-01-05T02:14:44.552Z,0
2017-01-05T02:15:44.556Z,0
2017-01-05T02:16:44.178Z,0
2017-01-05T02:17:44.206Z,0
2017-01-05T02:18:45.020Z,0
2017-01-05T02:19:45.048Z,0
2017-01-05T02:20:44.281Z,0
2017-01-05T02:21:44.717Z,0
2017-01-05T02:22:45.125Z,0
2017-01-05T02:23:44.754Z,0
2017-01-05T02:24:44.784Z,0
2017-01-05T02:25:44.835Z,0
2017-01-05T02:26:45.237Z,0
2017-01-05T02:27:45.650Z,0
2017-01-05T02:28:45.670Z,0
2017-01-05T02:29:44.518Z,0
2017-01-05T02:30:44.155Z,0
2017-01-05T02:31:44.998Z,0
2017-01-05T02:32:44.999Z,0
2017-01-05T02:33:45.012Z,0
2017-01-05T02:34:44.646Z,0
2017-01-05T02:35:45.859Z,0
2017-01-05T02:36:45.099Z,0
2017-01-05T02:37:45.912Z,0
2017-01-05T02:38:45.153Z,0
2017-01-05T02:39:45.174Z,0
2017-01-05T02:40:45.207Z,0
2017-01-05T02:41:45.227Z,0
2017-01-05T02:42:45.256Z,0
2017-01-05T02:43:45.681Z,0
2017-01-05T02:44:44.513Z,0
2017-01-05T02:45:44.930Z,0
2017-01-05T02:46:45.755Z,0
2017-01-05T02:47:45.387Z,0
2017-01-05T02:48:45.012Z,0
2017-01-05T02:49:45.041Z,0
2017-01-05T02:50:46.255Z,0
2017-01-05T02:51:45.091Z,0
2017-01-05T02:52:45.115Z,0
2017-01-05T02:53:45.972Z,0
2017-01-05T02:54:45.952Z,0
2017-01-05T02:55:44.793Z,0
2017-01-05T02:56:45.226Z,0
2017-01-05T02:57:46.439Z,0
2017-01-05T02:58:45.271Z,0
2017-01-05T02:59:46.484Z,0
2017-01-05T03:00:45.722Z,0
2017-01-05T03:01:44.961Z,0
2017-01-05T03:02:46.166Z,0
2017-01-05T03:03:46.196Z,0
2017-01-05T03:04:45.829Z,0
2017-01-05T03:05:46.245Z,0
2017-01-05T03:06:46.278Z,0
2017-01-05T03:07:46.710Z,0
2017-01-05T03:08:45.142Z,0
2017-01-05T03:09:45.164Z,0
2017-01-05T03:10:45.984Z,0
2017-01-05T03:11:45.245Z,0
2017-01-05T03:12:45.638Z,0
2017-01-05T03:13:46.459Z,0
2017-01-05T03:14:46.880Z,0
2017-01-05T03:15:46.504Z,0
2017-01-05T03:16:45.737Z,0
2017-01-05T03:17:46.161Z,0
2017-01-05T03:18:46.190Z,0
2017-01-05T03:19:46.607Z,0
2017-01-05T03:20:46.252Z,0
2017-01-05T03:21:47.056Z,0
2017-01-05T03:22:46.293Z,0
2017-01-05T03:23:45.529Z,0
2017-01-05T03:24:46.350Z,0
2017-01-05T03:25:45.980Z,0
2017-01-05T03:26:45.996Z,0
2017-01-05T03:27:46.424Z,0
2017-01-05T03:28:47.238Z,0
2017-01-05T03:29:46.475Z,0
2017-01-05T03:30:45.739Z,0
2017-01-05T03:31:46.555Z,0
2017-01-05T03:32:46.553Z,0
2017-01-05T03:33:46.577Z,0
2017-01-05T03:34:45.814Z,0
2017-01-05T03:35:47.054Z,0
2017-01-05T03:36:46.659Z,0
2017-01-05T03:37:46.683Z,0
2017-01-05T03:38:45.916Z,0
2017-01-05T03:39:46.337Z,0
2017-01-05T03:40:46.370Z,0
2017-01-05T03:41:46.787Z,0
2017-01-05T03:42:46.444Z,0
2017-01-05T03:43:46.842Z,0
2017-01-05T03:44:47.259Z,0
2017-01-05T03:45:47.682Z,0
2017-01-05T03:46:46.122Z,0
2017-01-05T03:47:46.939Z,0
2017-01-05T03:48:47.368Z,0
2017-01-05T03:49:46.589Z,0
2017-01-05T03:50:46.626Z,0
2017-01-05T03:51:47.447Z,0
2017-01-05T03:52:47.067Z,0
2017-01-05T03:53:46.732Z,0
2017-01-05T03:54:47.128Z,0
2017-01-05T03:55:46.749Z,0
2017-01-05T03:56:46.773Z,0
2017-01-05T03:57:46.802Z,0
2017-01-05T03:58:46.832Z,0
2017-01-05T03:59:48.069Z,0
2017-01-05T04:00:47.281Z,0
2017-01-05T04:01:46.905Z,0
2017-01-05T04:02:46.538Z,0
2017-01-05T04:03:47.363Z,0
2017-01-05T04:04:46.987Z,0
2017-01-05T04:05:46.617Z,0
2017-01-05T04:06:47.857Z,0
2017-01-05T04:07:48.258Z,0
2017-01-05T04:08:47.086Z,0
2017-01-05T04:09:47.123Z,0
2017-01-05T04:10:46.740Z,0
2017-01-05T04:11:47.565Z,0
2017-01-05T04:12:47.585Z,0
2017-01-05T04:13:47.218Z,0
2017-01-05T04:14:47.635Z,0
2017-01-05T04:15:47.668Z,0
2017-01-05T04:16:47.297Z,0
2017-01-05T04:17:47.325Z,0
2017-01-05T04:18:48.141Z,0
2017-01-05T04:19:46.979Z,0
2017-01-05T04:20:47.007Z,0
2017-01-05T04:21:48.216Z,0
2017-01-05T04:22:48.648Z,0
2017-01-05T04:23:48.273Z,0
2017-01-05T04:24:47.502Z,0
2017-01-05T04:25:47.138Z,0
2017-01-05T04:26:47.167Z,0
2017-01-05T04:27:47.972Z,0
2017-01-05T04:28:48.001Z,0
2017-01-05T04:29:48.030Z,0
2017-01-05T04:30:48.450Z,0
2017-01-05T04:31:47.683Z,0
2017-01-05T04:32:48.103Z,0
2017-01-05T04:33:47.736Z,0
2017-01-05T04:34:47.757Z,0
2017-01-05T04:35:47.782Z,0
2017-01-05T04:36:48.211Z,0
2017-01-05T04:37:49.019Z,0
2017-01-05T04:38:48.268Z,0
2017-01-05T04:39:48.285Z,0
2017-01-05T04:40:47.921Z,0
2017-01-05T04:41:48.730Z,0
2017-01-05T04:42:47.967Z,0
2017-01-05T04:43:47.993Z,0
2017-01-05T04:44:49.211Z,0
2017-01-05T04:45:48.440Z,0
2017-01-05T04:46:48.462Z,0
2017-01-05T04:47:48.490Z,0
2017-01-05T04:48:48.919Z,0
2017-01-05T04:49:48.150Z,0
2017-01-05T04:50:48.960Z,0
2017-01-05T04:51:48.989Z,0
2017-01-05T04:52:49.418Z,0
2017-01-05T04:53:48.642Z,0
2017-01-05T04:54:48.269Z,0
2017-01-05T04:55:47.904Z,0
2017-01-05T04:56:47.941Z,0
2017-01-05T04:57:48.745Z,0
2017-01-05T04:58:48.782Z,0
2017-01-05T04:59:48.791Z,0
2017-01-05T05:00:49.227Z,0
2017-01-05T05:01:48.060Z,0
2017-01-05T05:02:48.905Z,0
2017-01-05T05:03:48.114Z,0
2017-01-05T05:04:48.534Z,0
2017-01-05T05:05:48.955Z,0
2017-01-05T05:06:48.976Z,0
2017-01-05T05:07:49.000Z,0
2017-01-05T05:08:48.632Z,0
2017-01-05T05:09:49.453Z,0
2017-01-05T05:10:49.082Z,0
2017-01-05T05:11:49.499Z,0
2017-01-05T05:12:48.336Z,0
2017-01-05T05:13:48.765Z,0
2017-01-05T05:14:49.189Z,0
2017-01-05T05:15:48.822Z,0
2017-01-05T05:16:48.874Z,0
2017-01-05T05:17:48.475Z,0
2017-01-05T05:18:48.496Z,0
2017-01-05T05:19:49.708Z,0
2017-01-05T05:20:49.742Z,0
2017-01-05T05:21:49.767Z,0
2017-01-05T05:22:50.191Z,0
2017-01-05T05:23:48.627Z,0
2017-01-05T05:24:49.444Z,0
2017-01-05T05:25:48.669Z,0
2017-01-05T05:26:49.891Z,0
2017-01-05T05:27:49.162Z,0
2017-01-05T05:28:49.547Z,0
2017-01-05T05:29:50.364Z,0
2017-01-05T05:30:49.992Z,0
2017-01-05T05:31:49.621Z,0
2017-01-05T05:32:48.861Z,0
2017-01-05T05:33:48.887Z,0
2017-01-05T05:34:49.307Z,0
2017-01-05T05:35:49.728Z,0
2017-01-05T05:36:50.155Z,0
2017-01-05T05:37:49.781Z,0
2017-01-05T05:38:49.399Z,0
2017-01-05T05:39:49.023Z,0
2017-01-05T05:40:49.463Z,0
2017-01-05T05:41:49.885Z,0
2017-01-05T05:42:49.905Z,0
2017-01-05T05:43:49.930Z,0
2017-01-05T05:44:50.758Z,0
2017-01-05T05:45:49.987Z,0
2017-01-05T05:46:50.016Z,0
2017-01-05T05:47:49.636Z,0
2017-01-05T05:48:50.065Z,0
2017-01-05T05:49:49.718Z,0
2017-01-05T05:50:50.114Z,0
2017-01-05T05:51:50.135Z,0
2017-01-05T05:52:49.773Z,0
2017-01-05T05:53:49.397Z,0
2017-01-05T05:54:50.213Z,0
2017-01-05T05:55:49.854Z,0
2017-01-05T05:56:50.263Z,0
2017-01-05T05:57:50.720Z,0
2017-01-05T05:58:50.732Z,0
2017-01-05T05:59:51.134Z,0
2017-01-05T06:00:50.375Z,0
2017-01-05T06:01:50.818Z,0
2017-01-05T06:02:50.427Z,0
2017-01-05T06:03:50.440Z,0
2017-01-05T06:04:50.081Z,0
2017-01-05T06:05:50.109Z,0
2017-01-05T06:06:50.530Z,0
2017-01-05T06:07:51.338Z,0
2017-01-05T06:08:51.363Z,0
2017-01-05T06:09:50.596Z,0
2017-01-05T06:10:49.836Z,0
2017-01-05T06:11:50.658Z,0
2017-01-05T06:12:50.289Z,0
2017-01-05T06:13:50.740Z,0
2017-01-05T06:14:50.331Z,0
2017-01-05T06:15:50.363Z,0
2017-01-05T06:16:50.791Z,0
2017-01-05T06:17:50.016Z,0
2017-01-05T06:18:50.836Z,0
2017-01-05T06:19:51.289Z,0
2017-01-05T06:20:51.286Z,0
2017-01-05T06:21:50.119Z,0
2017-01-05T06:22:50.939Z,0
2017-01-05T06:23:50.576Z,0
2017-01-05T06:24:51.388Z,0
2017-01-05T06:25:51.021Z,0
2017-01-05T06:26:50.257Z,0
2017-01-05T06:27:51.857Z,0
2017-01-05T06:28:50.710Z,0
2017-01-05T06:29:50.734Z,0
2017-01-05T06:30:51.144Z,0
2017-01-05T06:31:50.381Z,0
2017-01-05T06:32:51.990Z,0
2017-01-05T06:33:52.042Z,0
2017-01-05T06:34:52.047Z,0
2017-01-05T06:35:50.527Z,0
2017-01-05T06:36:51.304Z,0
2017-01-05T06:37:52.129Z,0
2017-01-05T06:38:51.749Z,0
2017-01-05T06:39:50.590Z,0
2017-01-05T06:40:51.815Z,0
2017-01-05T06:41:51.432Z,0
2017-01-05T06:42:51.860Z,0
2017-01-05T06:43:51.083Z,0
2017-01-05T06:44:51.542Z,0
2017-01-05T06:45:51.150Z,0
2017-01-05T06:46:51.567Z,0
2017-01-05T06:47:51.987Z,0
2017-01-05T06:48:50.832Z,0
2017-01-05T06:49:51.649Z,0
2017-01-05T06:50:51.669Z,0
2017-01-05T06:51:52.098Z,0
2017-01-05T06:52:51.723Z,0
2017-01-05T06:53:51.335Z,0
2017-01-05T06:54:50.984Z,0
2017-01-05T06:55:51.433Z,0
2017-01-05T06:56:51.824Z,0
2017-01-05T06:57:52.250Z,0
2017-01-05T06:58:52.270Z,0
2017-01-05T06:59:52.696Z,0
2017-01-05T07:00:51.532Z,0
2017-01-05T07:01:52.356Z,0
2017-01-05T07:02:51.189Z,0
2017-01-05T07:03:52.014Z,0
2017-01-05T07:04:52.427Z,0
2017-01-05T07:05:52.063Z,0
2017-01-05T07:06:51.689Z,0
2017-01-05T07:07:52.515Z,0
2017-01-05T07:08:52.143Z,0
2017-01-05T07:09:51.375Z,0
2017-01-05T07:10:52.584Z,0
2017-01-05T07:11:51.824Z,0
2017-01-05T07:12:52.249Z,0
2017-01-05T07:13:51.883Z,0
2017-01-05T07:14:51.503Z,0
2017-01-05T07:15:51.926Z,0
2017-01-05T07:16:52.360Z,0
2017-01-05T07:17:53.172Z,0
2017-01-05T07:18:52.813Z,0
2017-01-05T07:19:52.421Z,0
2017-01-05T07:20:52.451Z,0
2017-01-05T07:21:52.483Z,0
2017-01-05T07:22:52.116Z,0
2017-01-05T07:23:52.929Z,0
2017-01-05T07:24:52.558Z,0
2017-01-05T07:25:52.587Z,0
2017-01-05T07:26:53.007Z,0
2017-01-05T07:27:52.239Z,0
2017-01-05T07:28:52.672Z,0
2017-01-05T07:29:52.701Z,0
2017-01-05T07:30:52.726Z,0
2017-01-05T07:31:52.747Z,0
2017-01-05T07:32:52.375Z,0
2017-01-05T07:33:52.408Z,0
2017-01-05T07:34:53.225Z,0
2017-01-05T07:35:53.246Z,0
2017-01-05T07:36:52.486Z,0
2017-01-05T07:37:52.111Z,0
2017-01-05T07:38:52.536Z,0
2017-01-05T07:39:52.552Z,0
2017-01-05T07:40:52.986Z,0
2017-01-05T07:41:53.422Z,0
2017-01-05T07:42:53.436Z,0
2017-01-05T07:43:53.857Z,0
2017-01-05T07:44:53.096Z,0
2017-01-05T07:45:53.511Z,0
2017-01-05T07:46:52.738Z,0
2017-01-05T07:47:53.570Z,0
2017-01-05T07:48:53.200Z,0
2017-01-05T07:49:52.825Z,0
2017-01-05T07:50:53.254Z,0
2017-01-05T07:51:54.070Z,0
2017-01-05T07:52:54.095Z,0
2017-01-05T07:53:53.323Z,0
2017-01-05T07:54:52.960Z,0
2017-01-05T07:55:52.989Z,0
2017-01-05T07:56:53.410Z,0
2017-01-05T07:57:53.834Z,0
2017-01-05T07:58:52.671Z,0
2017-01-05T07:59:53.492Z,0
2017-01-05T08:00:53.913Z,0
2017-01-05T08:01:54.358Z,0
2017-01-05T08:02:53.567Z,0
2017-01-05T08:03:53.191Z,0
2017-01-05T08:04:53.620Z,5
2017-01-05T08:05:53.253Z,5
2017-01-05T08:06:53.674Z,5
2017-01-05T08:07:53.302Z,5
2017-01-05T08:08:54.124Z,0
2017-01-05T08:09:53.756Z,5
2017-01-05T08:10:53.772Z,5
2017-01-05T08:11:53.809Z,5
2017-01-05T08:12:54.230Z,5
2017-01-05T08:13:53.459Z,5
2017-01-05T08:14:53.883Z,5
2017-01-05T08:15:54.308Z,5
2017-01-05T08:16:53.937Z,5
2017-01-05T08:17:54.362Z,5
2017-01-05T08:18:53.991Z,5
2017-01-05T08:19:54.419Z,5
2017-01-05T08:20:54.080Z,5
2017-01-05T08:21:54.077Z,5
2017-01-05T08:22:54.502Z,10
2017-01-05T08:23:54.119Z,10
2017-01-05T08:24:54.147Z,10
2017-01-05T08:25:54.604Z,10
2017-01-05T08:26:54.205Z,10
2017-01-05T08:27:54.625Z,10
2017-01-05T08:28:53.458Z,10
2017-01-05T08:29:54.283Z,10
2017-01-05T08:30:53.508Z,10
2017-01-05T08:31:53.541Z,10
2017-01-05T08:32:53.569Z,10
2017-01-05T08:33:54.782Z,10
2017-01-05T08:34:54.407Z,10
2017-01-05T08:35:54.047Z,15
2017-01-05T08:36:54.068Z,20
2017-01-05T08:37:54.889Z,20
2017-01-05T08:38:54.129Z,20
2017-01-05T08:39:54.159Z,25
2017-01-05T08:40:54.571Z,25
2017-01-05T08:41:53.800Z,15
2017-01-05T08:42:54.253Z,10
2017-01-05T08:43:53.865Z,10
2017-01-05T08:44:55.474Z,30
2017-01-05T08:45:54.727Z,30
2017-01-05T08:46:54.340Z,30
2017-01-05T08:47:54.760Z,30
2017-01-05T08:48:54.786Z,15
2017-01-05T08:49:54.810Z,15
2017-01-05T08:50:54.451Z,15
2017-01-05T08:51:55.665Z,15
2017-01-05T08:52:54.504Z,15
2017-01-05T08:53:54.525Z,10
2017-01-05T08:54:54.148Z,5
2017-01-05T08:55:54.582Z,10
2017-01-05T08:56:54.996Z,5
2017-01-05T08:57:54.653Z,5
2017-01-05T08:58:55.061Z,5
2017-01-05T08:59:55.470Z,10
2017-01-05T09:00:55.498Z,10
2017-01-05T09:01:55.135Z,15
2017-01-05T09:02:54.768Z,20
2017-01-05T09:03:54.784Z,20
2017-01-05T09:04:55.209Z,30
2017-01-05T09:05:55.235Z,30
2017-01-05T09:06:55.263Z,25
2017-01-05T09:07:55.316Z,25
2017-01-05T09:08:55.732Z,15
2017-01-05T09:09:55.785Z,20
2017-01-05T09:10:56.158Z,10
2017-01-05T09:11:54.602Z,10
2017-01-05T09:12:55.427Z,15
2017-01-05T09:13:55.044Z,15
2017-01-05T09:14:55.481Z,15
2017-01-05T09:15:55.101Z,30
2017-01-05T09:16:56.326Z,30
2017-01-05T09:17:55.559Z,35
2017-01-05T09:18:55.167Z,35
2017-01-05T09:19:56.004Z,30
2017-01-05T09:20:55.237Z,25
2017-01-05T09:21:54.870Z,25
2017-01-05T09:22:55.295Z,25
2017-01-05T09:23:55.353Z,35
2017-01-05T09:24:56.141Z,30
2017-01-05T09:25:56.161Z,20
2017-01-05T09:26:55.794Z,15
2017-01-05T09:27:55.426Z,15
2017-01-05T09:28:55.847Z,15
2017-01-05T09:29:55.871Z,10
2017-01-05T09:30:55.897Z,5
2017-01-05T09:31:55.926Z,5
2017-01-05T09:32:56.359Z,0
2017-01-05T09:33:56.379Z,0
2017-01-05T09:34:56.003Z,0
2017-01-05T09:35:56.428Z,0
2017-01-05T09:36:55.660Z,0
2017-01-05T09:37:55.298Z,0
2017-01-05T09:38:56.110Z,5
2017-01-05T09:39:55.743Z,5
2017-01-05T09:40:55.775Z,5
2017-01-05T09:41:56.589Z,5
2017-01-05T09:42:56.610Z,10
2017-01-05T09:43:55.855Z,10
2017-01-05T09:44:56.303Z,15
2017-01-05T09:45:56.704Z,15
2017-01-05T09:46:55.556Z,25
2017-01-05T09:47:56.353Z,30
2017-01-05T09:48:56.374Z,25
2017-01-05T09:49:56.798Z,20
2017-01-05T09:50:56.827Z,25
2017-01-05T09:51:56.849Z,25
2017-01-05T09:52:56.488Z,30
2017-01-05T09:53:56.141Z,30
2017-01-05T09:54:56.562Z,30
2017-01-05T09:55:56.559Z,20
2017-01-05T09:56:56.220Z,20
2017-01-05T09:57:57.409Z,20
2017-01-05T09:58:56.642Z,20
2017-01-05T09:59:57.066Z,20
2017-01-05T10:00:56.691Z,20
2017-01-05T10:01:56.319Z,15
2017-01-05T10:02:56.348Z,15
2017-01-05T10:03:56.377Z,15
2017-01-05T10:04:56.414Z,15
2017-01-05T10:05:57.614Z,15
2017-01-05T10:06:57.255Z,15
2017-01-05T10:07:56.884Z,15
2017-01-05T10:08:56.504Z,15
2017-01-05T10:09:56.177Z,15
2017-01-05T10:10:56.581Z,15
2017-01-05T10:11:56.987Z,15
2017-01-05T10:12:57.407Z,15
2017-01-05T10:13:57.437Z,15
2017-01-05T10:14:57.069Z,15
2017-01-05T10:15:57.494Z,15
2017-01-05T10:16:57.126Z,15
2017-01-05T10:17:56.743Z,15
2017-01-05T10:18:57.602Z,20
2017-01-05T10:19:56.808Z,20
2017-01-05T10:20:56.437Z,20
2017-01-05T10:21:56.862Z,25
2017-01-05T10:22:57.675Z,25
2017-01-05T10:23:58.100Z,30
2017-01-05T10:24:56.532Z,30
2017-01-05T10:25:57.361Z,30
2017-01-05T10:26:57.773Z,30
2017-01-05T10:27:57.014Z,30
2017-01-05T10:28:57.043Z,35
2017-01-05T10:29:57.463Z,40
2017-01-05T10:30:57.888Z,35
2017-01-05T10:31:57.913Z,35
2017-01-05T10:32:56.749Z,35
2017-01-05T10:33:56.770Z,40
2017-01-05T10:34:58.007Z,40
2017-01-05T10:35:58.408Z,40
2017-01-05T10:36:58.039Z,40
2017-01-05T10:37:57.285Z,40
2017-01-05T10:38:57.298Z,40
2017-01-05T10:39:57.731Z,35
2017-01-05T10:40:57.355Z,40
2017-01-05T10:41:56.988Z,45
2017-01-05T10:42:57.409Z,35
2017-01-05T10:43:58.238Z,30
2017-01-05T10:44:57.858Z,35
2017-01-05T10:45:57.896Z,20
2017-01-05T10:46:58.317Z,20
2017-01-05T10:47:58.349Z,10
2017-01-05T10:48:57.565Z,10
2017-01-05T10:49:58.001Z,10
2017-01-05T10:50:58.026Z,15
2017-01-05T10:51:57.255Z,20
2017-01-05T10:52:58.072Z,20
2017-01-05T10:53:58.493Z,20
2017-01-05T10:54:58.530Z,15
2017-01-05T10:55:58.168Z,25
2017-01-05T10:56:58.579Z,20
2017-01-05T10:57:58.207Z,20
2017-01-05T10:58:57.832Z,15
2017-01-05T10:59:57.861Z,30
2017-01-05T11:00:58.690Z,30
2017-01-05T11:01:58.738Z,20
2017-01-05T11:02:58.739Z,25
2017-01-05T11:03:58.756Z,25
2017-01-05T11:04:57.593Z,25
2017-01-05T11:05:58.029Z,20
2017-01-05T11:06:58.445Z,30
2017-01-05T11:07:58.071Z,25
2017-01-05T11:08:58.135Z,30
2017-01-05T11:09:58.128Z,30
2017-01-05T11:10:58.551Z,25
2017-01-05T11:11:58.973Z,20
2017-01-05T11:12:58.603Z,20
2017-01-05T11:13:58.658Z,20
2017-01-05T11:14:58.264Z,25
2017-01-05T11:15:59.088Z,30
2017-01-05T11:16:58.321Z,25
2017-01-05T11:17:58.338Z,30
2017-01-05T11:18:58.763Z,25
2017-01-05T11:19:59.575Z,25
2017-01-05T11:20:59.216Z,25
2017-01-05T11:21:58.440Z,20
2017-01-05T11:22:58.520Z,15
2017-01-05T11:23:58.890Z,20
2017-01-05T11:24:58.118Z,15
2017-01-05T11:25:58.155Z,15
2017-01-05T11:26:59.369Z,15
2017-01-05T11:27:59.001Z,15
2017-01-05T11:28:59.025Z,15
2017-01-05T11:29:58.290Z,15
2017-01-05T11:30:58.683Z,15
2017-01-05T11:31:59.107Z,15
2017-01-05T11:32:58.744Z,20
2017-01-05T11:33:59.949Z,15
2017-01-05T11:34:59.182Z,15
2017-01-05T11:35:59.202Z,15
2017-01-05T11:36:59.234Z,15
2017-01-05T11:37:58.871Z,15
2017-01-05T11:38:58.888Z,15
2017-01-05T11:39:58.529Z,15
2017-01-05T11:40:59.338Z,15
2017-01-05T11:41:58.579Z,15
2017-01-05T11:42:58.999Z,15
2017-01-05T11:43:59.808Z,15
2017-01-05T11:44:59.844Z,15
2017-01-05T11:45:59.457Z,15
2017-01-05T11:46:59.517Z,15
2017-01-05T11:47:59.126Z,15
2017-01-05T11:48:59.155Z,15
2017-01-05T11:49:59.183Z,15
2017-01-05T11:51:00.397Z,15
2017-01-05T11:51:59.633Z,15
2017-01-05T11:53:00.446Z,15
2017-01-05T11:53:59.690Z,15
2017-01-05T11:54:59.707Z,15
2017-01-05T11:55:59.362Z,15
2017-01-05T11:56:59.380Z,15
2017-01-05T11:57:59.018Z,15
2017-01-05T11:58:59.810Z,15
2017-01-05T12:00:00.239Z,20
2017-01-05T12:00:59.476Z,20
2017-01-05T12:01:59.884Z,20
2017-01-05T12:02:59.524Z,20
2017-01-05T12:04:00.353Z,20
2017-01-05T12:04:59.607Z,15
2017-01-05T12:05:59.605Z,15
2017-01-05T12:06:59.636Z,15
2017-01-05T12:08:00.449Z,10
2017-01-05T12:09:00.073Z,10
2017-01-05T12:10:00.524Z,15
2017-01-05T12:10:59.731Z,10
2017-01-05T12:12:00.552Z,15
2017-01-05T12:13:00.983Z,15
2017-01-05T12:14:00.214Z,15
2017-01-05T12:15:01.045Z,15
2017-01-05T12:16:00.662Z,15
2017-01-05T12:17:00.295Z,15
2017-01-05T12:18:00.339Z,15
2017-01-05T12:19:00.348Z,15
2017-01-05T12:19:59.581Z,15
2017-01-05T12:21:00.394Z,15
2017-01-05T12:22:00.030Z,15
2017-01-05T12:23:00.847Z,15
2017-01-05T12:24:00.075Z,15
2017-01-05T12:24:59.700Z,15
2017-01-05T12:26:00.133Z,15
2017-01-05T12:27:00.562Z,15
2017-01-05T12:28:00.994Z,15
2017-01-05T12:29:00.607Z,15
2017-01-05T12:30:00.240Z,15
2017-01-05T12:31:00.652Z,15
2017-01-05T12:32:00.501Z,15
2017-01-05T12:33:00.714Z,15
2017-01-05T12:34:01.135Z,15
2017-01-05T12:35:00.380Z,15
2017-01-05T12:36:01.188Z,15
2017-01-05T12:37:01.209Z,15
2017-01-05T12:38:00.457Z,15
2017-01-05T12:39:00.875Z,15
2017-01-05T12:40:00.519Z,20
2017-01-05T12:41:00.920Z,15
2017-01-05T12:42:00.552Z,20
2017-01-05T12:43:00.973Z,20
2017-01-05T12:44:00.597Z,15
2017-01-05T12:45:01.018Z,15
2017-01-05T12:46:01.063Z,15
2017-01-05T12:47:00.681Z,15
2017-01-05T12:48:01.100Z,15
2017-01-05T12:49:00.337Z,15
2017-01-05T12:50:01.157Z,15
2017-01-05T12:51:01.190Z,25
2017-01-05T12:52:00.815Z,15
2017-01-05T12:53:01.245Z,20
2017-01-05T12:54:02.052Z,25
2017-01-05T12:55:01.682Z,20
2017-01-05T12:56:00.918Z,20
2017-01-05T12:57:01.342Z,15
2017-01-05T12:58:00.579Z,25
2017-01-05T12:59:01.400Z,25
2017-01-05T13:00:01.423Z,20
2017-01-05T13:01:01.850Z,25
2017-01-05T13:02:01.518Z,20
2017-01-05T13:03:01.502Z,15
2017-01-05T13:04:01.528Z,15
2017-01-05T13:05:01.556Z,15
2017-01-05T13:06:01.183Z,10
2017-01-05T13:07:00.814Z,10
2017-01-05T13:08:01.623Z,10
2017-01-05T13:09:01.663Z,10
2017-01-05T13:10:01.699Z,10
2017-01-05T13:11:01.317Z,10
2017-01-05T13:12:16.258Z,10
2017-01-05T13:13:02.170Z,10
2017-01-05T13:14:01.815Z,10
2017-01-05T13:15:01.827Z,10
2017-01-05T13:16:01.068Z,10
2017-01-05T13:17:01.890Z,10
2017-01-05T13:18:16.419Z,10
2017-01-05T13:19:16.834Z,10
2017-01-05T13:20:02.362Z,10
2017-01-05T13:21:02.396Z,10
2017-01-05T13:22:02.015Z,10
2017-01-05T13:23:02.043Z,15
2017-01-05T13:24:01.685Z,10
2017-01-05T13:25:02.511Z,10
2017-01-05T13:26:02.511Z,10
2017-01-05T13:27:02.563Z,10
2017-01-05T13:28:03.171Z,10
2017-01-05T13:29:02.204Z,10
2017-01-05T13:30:02.620Z,10
2017-01-05T13:31:02.637Z,10
2017-01-05T13:32:02.663Z,10
2017-01-05T13:33:01.907Z,15
2017-01-05T13:34:02.319Z,10
2017-01-05T13:35:01.954Z,10
2017-01-05T13:36:01.981Z,10
2017-01-05T13:37:02.405Z,10
2017-01-05T13:38:02.426Z,10
2017-01-05T13:39:03.253Z,20
2017-01-05T13:40:02.491Z,20
2017-01-05T13:41:02.887Z,15
2017-01-05T13:42:01.753Z,15
2017-01-05T13:43:02.949Z,10
2017-01-05T13:44:02.173Z,10
2017-01-05T13:45:02.199Z,15
2017-01-05T13:46:02.639Z,10
2017-01-05T13:47:02.652Z,10
2017-01-05T13:48:03.483Z,10
2017-01-05T13:49:02.306Z,10
2017-01-05T13:50:03.594Z,10
2017-01-05T13:51:01.966Z,5
2017-01-05T13:52:02.795Z,5
2017-01-05T13:53:02.427Z,10
2017-01-05T13:54:03.629Z,10
2017-01-05T13:55:03.293Z,10
2017-01-05T13:56:03.318Z,10
2017-01-05T13:57:02.518Z,10
2017-01-05T13:58:02.573Z,10
2017-01-05T13:59:02.966Z,10
2017-01-05T14:00:02.605Z,10
2017-01-05T14:01:03.045Z,5
2017-01-05T14:02:03.094Z,5
2017-01-05T14:03:03.482Z,5
2017-01-05T14:04:03.511Z,5
2017-01-05T14:05:03.152Z,5
2017-01-05T14:06:02.774Z,5
2017-01-05T14:07:03.393Z,5
2017-01-05T14:08:02.835Z,5
2017-01-05T14:09:04.042Z,5
2017-01-05T14:10:02.475Z,5
2017-01-05T14:11:03.323Z,5
2017-01-05T14:12:03.325Z,5
2017-01-05T14:13:03.336Z,5
2017-01-05T14:14:03.388Z,5
2017-01-05T14:15:03.858Z,5
2017-01-05T14:16:03.418Z,5
2017-01-05T14:17:04.261Z,5
2017-01-05T14:18:03.912Z,5
2017-01-05T14:19:03.504Z,5
2017-01-05T14:20:03.141Z,5
2017-01-05T14:21:03.150Z,5
2017-01-05T14:22:03.786Z,5
2017-01-05T14:23:03.207Z,5
2017-01-05T14:24:03.692Z,5
2017-01-05T14:25:03.744Z,5
2017-01-05T14:26:04.381Z,5
2017-01-05T14:27:04.573Z,5
2017-01-05T14:28:04.141Z,5
2017-01-05T14:29:03.420Z,5
2017-01-05T14:30:03.939Z,5
2017-01-05T14:31:04.088Z,5
2017-01-05T14:32:04.289Z,5
2017-01-05T14:33:04.116Z,5
2017-01-05T14:34:03.613Z,5
2017-01-05T14:35:03.550Z,5
2017-01-05T14:36:04.495Z,5